John C. Munro Hamilton International Airport

CYHM | YHM

Hamilton , Ontario , Canada

Sunday, January 19th, 2020 | 14:26

Weather

CYHM 191900Z 29014G20KT 15SM FEW024 FEW062 BKN110 BKN250 M05/M12 A2993 RMK CU1SC1AC3CI1 SLP148

Charts

No Charts Available

Gates

28 Available

Runways

2 Available

Events

No events for this airport


New event